Time;durP1;ratioP1;P1;durP2;ratioP2;P2;SDS_P1;SDS_P2;PMS_P1;PMS_P2;Temp;Humidity;BMP_temperature;BMP_pressure;BME280_temperature;BME280_humidity;BME280_pressure;Samples;Min_cycle;Max_cycle;Signal;HPM_P1;HPM_P2
2023/04/09 00:00:17;;;;;;;27.00;20.10;;;;;;;;;;5042274;28;20912;-52
2023/04/09 00:02:44;;;;;;;29.20;22.17;;;;;;;;;;5043116;28;20233;-51
2023/04/09 00:05:11;;;;;;;26.47;20.87;;;;;;;;;;5033290;28;20228;-52
2023/04/09 00:07:37;;;;;;;29.87;22.33;;;;;;;;;;5047021;28;20238;-51
2023/04/09 00:10:04;;;;;;;32.93;23.63;;;;;;;;;;5041082;28;20232;-52
2023/04/09 00:12:31;;;;;;;29.67;23.17;;;;;;;;;;5036976;28;20236;-52
2023/04/09 00:14:58;;;;;;;33.03;24.07;;;;;;;;;;5040116;28;20237;-53
2023/04/09 00:17:26;;;;;;;34.10;24.23;;;;;;;;;;5036349;28;20235;-51
2023/04/09 00:19:52;;;;;;;37.97;26.97;;;;;;;;;;5039397;28;20242;-51
2023/04/09 00:22:19;;;;;;;33.33;26.23;;;;;;;;;;5040862;28;20234;-52
2023/04/09 00:24:46;;;;;;;34.37;26.77;;;;;;;;;;5035892;28;20322;-51
2023/04/09 00:27:12;;;;;;;31.60;24.37;;;;;;;;;;5038673;28;20713;-52
2023/04/09 00:29:39;;;;;;;33.73;24.93;;;;;;;;;;5046940;28;20337;-52
2023/04/09 00:32:06;;;;;;;30.87;23.00;;;;;;;;;;5039180;28;20638;-51
2023/04/09 00:34:34;;;;;;;30.20;24.07;;;;;;;;;;5034328;28;20334;-51
2023/04/09 00:37:01;;;;;;;27.47;23.17;;;;;;;;;;5039289;28;20228;-51
2023/04/09 00:39:27;;;;;;;33.33;23.87;;;;;;;;;;5039472;28;20719;-52
2023/04/09 00:41:56;;;;;;;30.43;23.83;;;;;;;;;;5041897;28;20323;-52
2023/04/09 00:44:22;;;;;;;33.50;25.30;;;;;;;;;;5034217;28;20255;-51
2023/04/09 00:46:49;;;;;;;29.00;21.67;;;;;;;;;;5035577;28;20721;-52
2023/04/09 00:49:15;;;;;;;30.17;22.63;;;;;;;;;;5025730;28;20718;-52
2023/04/09 00:51:44;;;;;;;30.80;21.80;;;;;;;;;;5034814;28;20239;-52
2023/04/09 00:54:10;;;;;;;29.87;23.03;;;;;;;;;;5037059;28;20307;-51
2023/04/09 00:56:38;;;;;;;33.10;23.80;;;;;;;;;;5034371;28;20236;-52
2023/04/09 00:59:05;;;;;;;29.47;21.93;;;;;;;;;;5030108;28;20489;-54
2023/04/09 01:01:31;;;;;;;34.17;22.23;;;;;;;;;;5037487;28;20722;-52
2023/04/09 01:03:58;;;;;;;26.73;19.97;;;;;;;;;;5038697;28;20333;-51
2023/04/09 01:06:27;;;;;;;26.27;21.43;;;;;;;;;;5032233;28;20229;-51
2023/04/09 01:08:59;;;;;;;26.53;20.30;;;;;;;;;;5044222;28;20302;-51
2023/04/09 01:11:31;;;;;;;25.40;19.83;;;;;;;;;;5034682;28;20298;-51
2023/04/09 01:14:01;;;;;;;27.73;22.03;;;;;;;;;;5035413;28;20350;-56
2023/04/09 01:16:29;;;;;;;26.17;20.57;;;;;;;;;;5037464;28;20228;-52
2023/04/09 01:18:57;;;;;;;26.20;20.50;;;;;;;;;;5032870;28;20247;-52
2023/04/09 01:21:26;;;;;;;28.93;21.63;;;;;;;;;;5031910;28;20251;-52
2023/04/09 01:23:58;;;;;;;25.67;20.17;;;;;;;;;;5025461;28;20611;-51
2023/04/09 01:26:30;;;;;;;26.13;20.50;;;;;;;;;;5027989;28;20411;-51
2023/04/09 01:28:59;;;;;;;25.23;20.90;;;;;;;;;;5013716;28;20244;-52
2023/04/09 01:31:28;;;;;;;28.20;21.87;;;;;;;;;;5048392;28;20239;-51
2023/04/09 01:33:55;;;;;;;24.40;18.57;;;;;;;;;;5031897;28;20244;-52
2023/04/09 01:36:23;;;;;;;29.27;21.97;;;;;;;;;;5031006;28;20317;-52
2023/04/09 01:38:50;;;;;;;26.87;20.93;;;;;;;;;;5035840;28;20236;-52
2023/04/09 01:41:18;;;;;;;28.90;19.83;;;;;;;;;;5029516;28;20232;-51
2023/04/09 01:43:45;;;;;;;23.50;18.97;;;;;;;;;;5035363;28;20277;-52
2023/04/09 01:46:13;;;;;;;28.47;20.23;;;;;;;;;;5031113;28;20223;-52
2023/04/09 01:48:40;;;;;;;26.07;20.10;;;;;;;;;;5036990;28;20803;-51
2023/04/09 01:51:06;;;;;;;26.30;18.93;;;;;;;;;;5039772;28;20325;-52
2023/04/09 01:53:33;;;;;;;25.03;18.90;;;;;;;;;;5038586;28;20281;-52
2023/04/09 01:55:59;;;;;;;22.50;18.47;;;;;;;;;;5029049;28;20322;-51
2023/04/09 01:58:26;;;;;;;26.13;20.37;;;;;;;;;;5033102;28;20356;-52
2023/04/09 02:00:56;;;;;;;24.17;19.50;;;;;;;;;;5038659;28;20227;-51
2023/04/09 02:03:24;;;;;;;25.80;19.20;;;;;;;;;;5033698;28;20247;-50
2023/04/09 02:05:55;;;;;;;27.90;20.40;;;;;;;;;;5037685;28;20303;-52
2023/04/09 02:08:23;;;;;;;27.13;20.37;;;;;;;;;;5038543;28;20232;-52
2023/04/09 02:10:52;;;;;;;27.17;20.87;;;;;;;;;;5027850;28;20229;-51
2023/04/09 02:13:19;;;;;;;25.33;19.90;;;;;;;;;;5034444;28;20268;-52
2023/04/09 02:15:46;;;;;;;25.30;18.57;;;;;;;;;;5032915;28;20227;-52
2023/04/09 02:18:24;;;;;;;25.13;21.37;;;;;;;;;;5033890;28;20320;-52
2023/04/09 02:20:52;;;;;;;25.00;20.03;;;;;;;;;;5034885;28;20277;-51
2023/04/09 02:23:18;;;;;;;26.43;20.63;;;;;;;;;;5036803;28;20243;-52
2023/04/09 02:25:45;;;;;;;27.97;21.67;;;;;;;;;;5031185;28;20223;-51
2023/04/09 02:28:11;;;;;;;26.07;21.03;;;;;;;;;;5043035;28;20243;-52
2023/04/09 02:30:38;;;;;;;27.03;20.23;;;;;;;;;;5045008;28;20327;-52
2023/04/09 02:33:04;;;;;;;26.80;20.30;;;;;;;;;;5034471;28;20309;-51
2023/04/09 02:35:33;;;;;;;31.00;21.37;;;;;;;;;;5043524;28;20233;-52
2023/04/09 02:37:59;;;;;;;26.53;21.47;;;;;;;;;;5032548;28;20255;-51
2023/04/09 02:40:26;;;;;;;25.43;20.33;;;;;;;;;;5034492;28;20783;-52
2023/04/09 02:42:53;;;;;;;33.37;23.73;;;;;;;;;;5035207;28;20238;-52
2023/04/09 02:45:19;;;;;;;28.03;21.73;;;;;;;;;;5036353;28;20228;-52
2023/04/09 02:47:46;;;;;;;26.73;22.60;;;;;;;;;;5039093;28;20235;-52
2023/04/09 02:50:13;;;;;;;28.97;22.40;;;;;;;;;;5045179;28;20231;-53
2023/04/09 02:52:40;;;;;;;27.13;20.43;;;;;;;;;;5045666;28;20252;-51
2023/04/09 02:55:08;;;;;;;28.17;21.43;;;;;;;;;;5042348;28;20254;-51
2023/04/09 02:57:35;;;;;;;26.73;21.60;;;;;;;;;;5042360;28;20235;-52
2023/04/09 03:00:05;;;;;;;32.97;24.93;;;;;;;;;;5032349;28;20410;-52
2023/04/09 03:02:31;;;;;;;30.27;22.00;;;;;;;;;;5036686;28;20259;-52
2023/04/09 03:04:58;;;;;;;28.23;21.20;;;;;;;;;;5043911;28;20935;-51
2023/04/09 03:07:24;;;;;;;28.67;21.57;;;;;;;;;;5034641;28;20235;-51
2023/04/09 03:09:52;;;;;;;29.37;21.83;;;;;;;;;;5038791;28;20231;-50
2023/04/09 03:12:18;;;;;;;27.30;20.40;;;;;;;;;;5035777;28;20236;-53
2023/04/09 03:14:45;;;;;;;23.63;19.37;;;;;;;;;;5035563;28;20228;-52
2023/04/09 03:17:12;;;;;;;28.27;21.27;;;;;;;;;;5030165;28;20236;-51
2023/04/09 03:19:38;;;;;;;29.27;22.53;;;;;;;;;;5038523;28;20232;-50
2023/04/09 03:22:05;;;;;;;30.80;21.33;;;;;;;;;;5041329;28;20240;-51
2023/04/09 03:24:32;;;;;;;28.87;20.73;;;;;;;;;;5032525;28;20298;-52
2023/04/09 03:27:01;;;;;;;33.07;22.77;;;;;;;;;;5048507;28;20239;-52
2023/04/09 03:29:27;;;;;;;30.50;20.57;;;;;;;;;;5038214;28;20314;-50
2023/04/09 03:31:54;;;;;;;28.93;20.63;;;;;;;;;;5037723;28;20232;-51
2023/04/09 03:34:21;;;;;;;29.17;20.00;;;;;;;;;;5040311;28;20233;-52
2023/04/09 03:36:47;;;;;;;28.73;20.83;;;;;;;;;;5042021;28;20353;-51
2023/04/09 03:39:14;;;;;;;28.00;20.33;;;;;;;;;;5042437;28;20239;-51
2023/04/09 03:41:41;;;;;;;26.93;21.40;;;;;;;;;;5051557;28;20722;-52
2023/04/09 03:44:09;;;;;;;29.10;22.63;;;;;;;;;;5043242;28;20702;-53
2023/04/09 03:46:35;;;;;;;28.47;21.67;;;;;;;;;;5047073;28;20287;-52
2023/04/09 03:49:02;;;;;;;25.30;20.17;;;;;;;;;;5024094;28;20247;-51
2023/04/09 03:51:29;;;;;;;24.40;19.17;;;;;;;;;;5037518;28;20650;-54
2023/04/09 03:53:55;;;;;;;28.20;20.30;;;;;;;;;;5031538;28;20242;-52
2023/04/09 03:56:24;;;;;;;24.90;18.07;;;;;;;;;;5029598;28;20306;-51
2023/04/09 03:58:50;;;;;;;26.17;18.77;;;;;;;;;;5031870;28;20240;-52
2023/04/09 04:01:18;;;;;;;22.00;17.37;;;;;;;;;;5037274;28;20237;-52
2023/04/09 04:03:45;;;;;;;26.83;19.17;;;;;;;;;;5042927;28;20748;-52
2023/04/09 04:06:11;;;;;;;25.53;19.00;;;;;;;;;;5042690;28;20234;-51
2023/04/09 04:08:38;;;;;;;28.63;20.87;;;;;;;;;;5031259;28;20702;-50
2023/04/09 04:11:05;;;;;;;24.97;20.07;;;;;;;;;;5043268;28;20308;-51
2023/04/09 04:13:32;;;;;;;25.10;17.50;;;;;;;;;;5043915;28;20267;-51
2023/04/09 04:15:59;;;;;;;23.27;18.57;;;;;;;;;;5060192;28;20314;-50
2023/04/09 04:18:27;;;;;;;24.97;18.87;;;;;;;;;;5050248;28;20259;-51
2023/04/09 04:20:53;;;;;;;25.90;19.33;;;;;;;;;;5038593;28;20240;-52
2023/04/09 04:23:20;;;;;;;25.30;18.17;;;;;;;;;;5062739;28;20233;-53
2023/04/09 04:25:47;;;;;;;23.70;18.23;;;;;;;;;;5042778;28;20227;-53
2023/04/09 04:28:14;;;;;;;24.53;19.10;;;;;;;;;;5024893;28;20306;-53
2023/04/09 04:30:41;;;;;;;23.47;18.10;;;;;;;;;;5036603;28;20866;-51
2023/04/09 04:33:08;;;;;;;27.77;20.43;;;;;;;;;;5054206;28;20239;-50
2023/04/09 04:35:36;;;;;;;26.70;19.60;;;;;;;;;;5045266;28;20224;-51
2023/04/09 04:38:03;;;;;;;25.73;19.67;;;;;;;;;;5037869;28;20289;-52
2023/04/09 04:40:29;;;;;;;24.27;19.07;;;;;;;;;;5042517;28;20741;-54
2023/04/09 04:42:56;;;;;;;23.00;18.30;;;;;;;;;;5044589;28;20238;-52
2023/04/09 04:45:23;;;;;;;23.80;18.20;;;;;;;;;;5038349;28;20285;-51
2023/04/09 04:47:50;;;;;;;24.27;19.33;;;;;;;;;;5041542;28;20249;-51
2023/04/09 04:50:16;;;;;;;24.90;18.97;;;;;;;;;;5040474;28;20227;-52
2023/04/09 04:52:45;;;;;;;22.33;17.67;;;;;;;;;;5031369;28;20228;-51
2023/04/09 04:55:11;;;;;;;23.23;18.13;;;;;;;;;;5042668;28;20278;-51
2023/04/09 04:57:38;;;;;;;26.87;21.03;;;;;;;;;;5040180;28;20275;-52
2023/04/09 05:00:05;;;;;;;26.33;19.37;;;;;;;;;;5039501;28;20266;-51
2023/04/09 05:02:31;;;;;;;28.17;20.70;;;;;;;;;;5044438;28;20232;-51
2023/04/09 05:04:58;;;;;;;25.97;19.40;;;;;;;;;;5042430;28;20253;-51
2023/04/09 05:07:25;;;;;;;25.83;18.80;;;;;;;;;;5050819;28;20266;-52
2023/04/09 05:09:54;;;;;;;27.57;20.53;;;;;;;;;;5046394;28;20282;-51
2023/04/09 05:12:20;;;;;;;25.17;19.67;;;;;;;;;;5050138;28;20351;-51
2023/04/09 05:14:47;;;;;;;28.50;21.67;;;;;;;;;;5029782;28;20612;-50
2023/04/09 05:17:14;;;;;;;24.53;19.27;;;;;;;;;;5053660;28;20239;-51
2023/04/09 05:19:41;;;;;;;26.40;20.03;;;;;;;;;;5044328;28;20246;-51
2023/04/09 05:22:08;;;;;;;31.30;22.37;;;;;;;;;;5056225;28;20227;-51
2023/04/09 05:24:35;;;;;;;26.93;20.10;;;;;;;;;;5051157;28;20249;-52
2023/04/09 05:27:03;;;;;;;27.33;19.67;;;;;;;;;;5056608;28;20226;-54
2023/04/09 05:29:30;;;;;;;27.97;21.00;;;;;;;;;;5034745;28;20232;-52
2023/04/09 05:32:03;;;;;;;26.97;20.03;;;;;;;;;;5037965;28;20228;-52
2023/04/09 05:34:30;;;;;;;26.17;20.50;;;;;;;;;;5039001;28;20247;-51
2023/04/09 05:36:56;;;;;;;29.13;19.17;;;;;;;;;;5044861;28;20276;-51
2023/04/09 05:39:23;;;;;;;27.73;20.37;;;;;;;;;;5041111;28;20255;-51
2023/04/09 05:41:51;;;;;;;26.27;21.07;;;;;;;;;;5037264;28;20725;-51
2023/04/09 05:44:19;;;;;;;27.70;20.73;;;;;;;;;;5036749;28;20231;-52
2023/04/09 05:46:46;;;;;;;31.23;22.23;;;;;;;;;;5038020;28;20447;-51
2023/04/09 05:49:13;;;;;;;26.37;20.77;;;;;;;;;;5028560;28;20242;-51
2023/04/09 05:51:39;;;;;;;25.47;20.00;;;;;;;;;;5027479;28;20228;-51
2023/04/09 05:54:06;;;;;;;25.93;18.43;;;;;;;;;;5024365;28;20232;-51
2023/04/09 05:56:33;;;;;;;25.10;19.17;;;;;;;;;;5033345;28;20230;-52
2023/04/09 05:58:59;;;;;;;24.57;18.40;;;;;;;;;;5041019;28;20237;-51
2023/04/09 06:01:28;;;;;;;31.30;21.27;;;;;;;;;;5042227;28;20231;-51
2023/04/09 06:03:55;;;;;;;30.50;21.30;;;;;;;;;;5035526;28;20228;-52
2023/04/09 06:06:22;;;;;;;32.17;22.87;;;;;;;;;;5044185;28;20246;-51
2023/04/09 06:08:48;;;;;;;28.17;20.60;;;;;;;;;;5042179;28;20329;-50
2023/04/09 06:11:15;;;;;;;29.60;20.57;;;;;;;;;;5044017;28;20240;-50
2023/04/09 06:13:42;;;;;;;26.60;19.77;;;;;;;;;;5055886;28;21060;-51
2023/04/09 06:16:09;;;;;;;27.83;20.43;;;;;;;;;;5048185;28;20608;-52
2023/04/09 06:18:37;;;;;;;27.90;20.50;;;;;;;;;;5052104;28;20892;-52
2023/04/09 06:21:03;;;;;;;30.83;22.23;;;;;;;;;;5050517;28;20635;-51
2023/04/09 06:23:30;;;;;;;27.03;21.63;;;;;;;;;;5047880;28;20236;-53
2023/04/09 06:25:57;;;;;;;28.70;20.63;;;;;;;;;;5042460;28;20657;-53
2023/04/09 06:28:24;;;;;;;24.87;18.70;;;;;;;;;;5041691;28;20235;-52
2023/04/09 06:30:52;;;;;;;29.80;21.30;;;;;;;;;;5043419;28;20235;-51
2023/04/09 06:33:18;;;;;;;26.40;20.30;;;;;;;;;;5044814;28;20740;-52
2023/04/09 06:35:47;;;;;;;29.03;21.70;;;;;;;;;;5035523;28;20227;-52
2023/04/09 06:38:13;;;;;;;29.03;21.73;;;;;;;;;;5031962;28;20236;-52
2023/04/09 06:40:40;;;;;;;26.87;20.23;;;;;;;;;;5035122;28;20318;-52
2023/04/09 06:43:07;;;;;;;28.87;21.10;;;;;;;;;;5035703;28;20920;-53
2023/04/09 06:45:33;;;;;;;27.30;21.00;;;;;;;;;;5039845;28;20347;-52
2023/04/09 06:48:00;;;;;;;27.50;20.60;;;;;;;;;;5036908;28;20251;-53
2023/04/09 06:50:27;;;;;;;25.37;19.53;;;;;;;;;;5038085;28;20234;-53
2023/04/09 06:52:55;;;;;;;27.47;21.27;;;;;;;;;;5036965;28;20239;-54
2023/04/09 06:55:22;;;;;;;32.20;21.70;;;;;;;;;;5036964;28;20660;-52
2023/04/09 06:57:48;;;;;;;28.83;20.33;;;;;;;;;;5031299;28;20280;-51
2023/04/09 07:00:15;;;;;;;26.63;21.17;;;;;;;;;;5030206;28;20281;-49
2023/04/09 07:02:42;;;;;;;28.33;21.10;;;;;;;;;;5035130;28;20228;-50
2023/04/09 07:05:08;;;;;;;28.97;21.40;;;;;;;;;;5041515;28;20612;-51
2023/04/09 07:07:35;;;;;;;30.10;21.40;;;;;;;;;;5038137;28;20224;-51
2023/04/09 07:10:03;;;;;;;29.07;21.63;;;;;;;;;;5036180;28;20236;-55
2023/04/09 07:12:30;;;;;;;27.20;19.07;;;;;;;;;;5045830;28;20706;-52
2023/04/09 07:14:57;;;;;;;24.53;18.83;;;;;;;;;;5038004;28;20243;-52
2023/04/09 07:17:24;;;;;;;30.17;21.73;;;;;;;;;;5035830;28;20636;-50
2023/04/09 07:19:51;;;;;;;28.73;20.13;;;;;;;;;;5036204;28;20311;-52
2023/04/09 07:22:17;;;;;;;29.37;21.30;;;;;;;;;;5041701;28;20688;-51
2023/04/09 07:24:44;;;;;;;26.00;20.47;;;;;;;;;;5041918;28;20325;-52
2023/04/09 07:27:12;;;;;;;31.43;22.33;;;;;;;;;;5039231;28;20237;-50
2023/04/09 07:29:39;;;;;;;25.47;21.20;;;;;;;;;;5040241;28;20254;-52
2023/04/09 07:32:06;;;;;;;28.33;21.07;;;;;;;;;;5037252;28;20662;-50
2023/04/09 07:34:32;;;;;;;26.83;20.47;;;;;;;;;;5043311;28;20244;-52
2023/04/09 07:36:59;;;;;;;31.17;23.27;;;;;;;;;;5036646;28;20321;-52
2023/04/09 07:39:26;;;;;;;28.03;20.83;;;;;;;;;;5041394;28;20228;-52
2023/04/09 07:41:53;;;;;;;32.67;23.23;;;;;;;;;;5039827;28;20248;-51
2023/04/09 07:44:21;;;;;;;31.10;21.40;;;;;;;;;;5043785;28;20595;-51
2023/04/09 07:46:47;;;;;;;28.80;22.03;;;;;;;;;;5044126;28;20235;-51
2023/04/09 07:49:15;;;;;;;27.63;21.10;;;;;;;;;;5036779;28;20228;-50
2023/04/09 07:51:42;;;;;;;28.80;22.20;;;;;;;;;;5040600;28;20224;-51
2023/04/09 07:54:08;;;;;;;28.70;22.37;;;;;;;;;;5040095;28;20236;-51
2023/04/09 07:56:35;;;;;;;27.80;22.00;;;;;;;;;;5037817;28;20235;-52
2023/04/09 07:59:02;;;;;;;31.30;22.63;;;;;;;;;;5032989;28;20534;-55
2023/04/09 08:01:30;;;;;;;28.50;23.20;;;;;;;;;;5036917;28;20224;-52
2023/04/09 08:03:56;;;;;;;29.80;22.93;;;;;;;;;;5040460;28;20821;-51
2023/04/09 08:06:22;;;;;;;35.23;23.10;;;;;;;;;;5041469;28;20261;-51
2023/04/09 08:08:49;;;;;;;31.90;23.13;;;;;;;;;;5031382;28;20314;-52
2023/04/09 08:11:17;;;;;;;30.43;22.70;;;;;;;;;;5042768;28;20886;-51
2023/04/09 08:13:43;;;;;;;29.40;22.73;;;;;;;;;;5034583;28;20251;-53
2023/04/09 08:16:10;;;;;;;33.70;24.30;;;;;;;;;;5037165;28;20295;-51
2023/04/09 08:18:38;;;;;;;33.87;22.37;;;;;;;;;;5039322;28;20383;-53
2023/04/09 08:21:05;;;;;;;31.00;23.30;;;;;;;;;;5048471;28;20236;-51
2023/04/09 08:23:32;;;;;;;30.13;21.20;;;;;;;;;;5051800;28;20228;-51
2023/04/09 08:25:58;;;;;;;29.37;22.37;;;;;;;;;;5063830;28;20262;-52
2023/04/09 08:28:25;;;;;;;29.00;23.30;;;;;;;;;;5031109;28;20323;-52
2023/04/09 08:30:51;;;;;;;30.13;23.17;;;;;;;;;;5041668;28;20223;-51
2023/04/09 08:33:18;;;;;;;28.37;22.20;;;;;;;;;;5039359;28;20256;-52
2023/04/09 08:35:46;;;;;;;29.13;21.70;;;;;;;;;;5042652;28;20644;-51
2023/04/09 08:38:15;;;;;;;31.20;20.87;;;;;;;;;;5030161;28;20323;-52
2023/04/09 08:40:42;;;;;;;32.93;24.10;;;;;;;;;;5035987;28;20273;-51
2023/04/09 08:43:10;;;;;;;33.20;23.13;;;;;;;;;;5037797;28;20721;-51
2023/04/09 08:45:37;;;;;;;31.67;22.30;;;;;;;;;;5035875;28;20315;-52
2023/04/09 08:48:05;;;;;;;29.97;23.03;;;;;;;;;;5034699;28;20266;-51
2023/04/09 08:50:32;;;;;;;31.73;21.80;;;;;;;;;;5045325;28;20246;-52
2023/04/09 08:53:02;;;;;;;28.93;22.77;;;;;;;;;;5038077;28;20784;-51
2023/04/09 08:55:30;;;;;;;27.83;21.43;;;;;;;;;;5034235;28;20706;-51
2023/04/09 08:57:57;;;;;;;26.83;21.10;;;;;;;;;;5041058;28;20243;-51
2023/04/09 09:00:23;;;;;;;28.27;21.83;;;;;;;;;;5040051;28;20240;-51
2023/04/09 09:03:03;;;;;;;28.90;22.37;;;;;;;;;;5040095;28;20307;-52
2023/04/09 09:05:39;;;;;;;32.93;23.53;;;;;;;;;;5037335;28;20856;-50
2023/04/09 09:08:08;;;;;;;33.73;24.93;;;;;;;;;;5030754;28;20240;-52
2023/04/09 09:10:38;;;;;;;31.10;23.67;;;;;;;;;;5036214;28;20229;-51
2023/04/09 09:13:16;;;;;;;27.93;22.03;;;;;;;;;;5041720;28;20239;-51
2023/04/09 09:15:43;;;;;;;28.03;21.33;;;;;;;;;;5033293;28;20828;-52
2023/04/09 09:18:09;;;;;;;29.27;22.50;;;;;;;;;;5039737;28;20232;-51
2023/04/09 09:20:36;;;;;;;29.87;21.73;;;;;;;;;;5039611;28;20718;-52
2023/04/09 09:23:03;;;;;;;30.90;22.20;;;;;;;;;;5044348;28;20506;-54
2023/04/09 09:25:32;;;;;;;28.53;20.87;;;;;;;;;;5042042;28;20322;-52
2023/04/09 09:28:07;;;;;;;27.83;21.83;;;;;;;;;;5042304;28;20228;-51
2023/04/09 09:30:37;;;;;;;31.20;22.07;;;;;;;;;;5037549;28;20224;-52
2023/04/09 09:33:07;;;;;;;28.43;22.10;;;;;;;;;;5040109;28;20287;-52
2023/04/09 09:35:47;;;;;;;29.07;20.17;;;;;;;;;;5033809;28;20266;-51
2023/04/09 09:38:14;;;;;;;27.17;20.27;;;;;;;;;;5035259;28;20244;-55
2023/04/09 09:40:43;;;;;;;29.30;21.90;;;;;;;;;;5035560;28;20710;-51
2023/04/09 09:43:09;;;;;;;24.43;19.73;;;;;;;;;;5045464;28;20234;-52
2023/04/09 09:45:36;;;;;;;26.43;20.00;;;;;;;;;;5038639;28;20462;-53
2023/04/09 09:48:04;;;;;;;25.33;19.50;;;;;;;;;;5041562;28;20240;-53
2023/04/09 09:50:31;;;;;;;28.47;22.07;;;;;;;;;;5043643;28;20307;-52
2023/04/09 09:53:00;;;;;;;29.10;22.10;;;;;;;;;;5041871;28;20294;-53
2023/04/09 09:55:27;;;;;;;28.50;21.00;;;;;;;;;;5040584;28;20616;-50
2023/04/09 09:57:56;;;;;;;26.67;21.77;;;;;;;;;;5040285;28;20752;-51
2023/04/09 10:00:24;;;;;;;27.30;21.67;;;;;;;;;;5039163;28;22552;-51
2023/04/09 10:02:55;;;;;;;27.10;21.33;;;;;;;;;;5042835;28;20230;-52
2023/04/09 10:05:25;;;;;;;26.77;20.60;;;;;;;;;;5050880;28;20301;-51
2023/04/09 10:07:52;;;;;;;26.47;21.13;;;;;;;;;;5047045;28;20232;-53
2023/04/09 10:10:19;;;;;;;27.30;21.57;;;;;;;;;;5049316;28;20276;-54
2023/04/09 10:12:46;;;;;;;32.03;22.47;;;;;;;;;;5033628;28;20224;-51
2023/04/09 10:15:14;;;;;;;27.77;21.33;;;;;;;;;;5044681;28;20776;-53
2023/04/09 10:17:41;;;;;;;27.10;21.30;;;;;;;;;;5042067;28;20251;-53
2023/04/09 10:20:11;;;;;;;27.60;20.77;;;;;;;;;;5042190;28;20236;-51
2023/04/09 10:22:37;;;;;;;26.10;21.70;;;;;;;;;;5034199;28;20228;-51
2023/04/09 10:25:05;;;;;;;24.20;20.10;;;;;;;;;;5039938;28;20240;-51
2023/04/09 10:27:32;;;;;;;26.43;20.40;;;;;;;;;;5039669;28;20862;-51
2023/04/09 10:29:59;;;;;;;31.63;21.80;;;;;;;;;;5040960;28;20262;-51
2023/04/09 10:32:27;;;;;;;26.97;20.70;;;;;;;;;;5045205;28;20228;-52
2023/04/09 10:34:56;;;;;;;28.20;21.67;;;;;;;;;;5036957;28;20319;-50
2023/04/09 10:37:24;;;;;;;28.20;20.77;;;;;;;;;;5036009;28;20263;-52
2023/04/09 10:39:51;;;;;;;27.23;18.67;;;;;;;;;;5040216;28;20343;-52
2023/04/09 10:42:19;;;;;;;24.77;19.27;;;;;;;;;;5039679;28;20255;-51
2023/04/09 10:44:45;;;;;;;24.80;19.53;;;;;;;;;;5041457;28;20314;-50
2023/04/09 10:47:12;;;;;;;24.63;19.30;;;;;;;;;;5044530;28;20259;-51
2023/04/09 10:49:41;;;;;;;26.73;20.93;;;;;;;;;;5046048;28;20224;-52
2023/04/09 10:52:09;;;;;;;23.27;18.70;;;;;;;;;;5049582;28;20238;-50
2023/04/09 10:54:45;;;;;;;24.63;19.67;;;;;;;;;;5049637;28;20227;-52
2023/04/09 10:57:13;;;;;;;26.60;18.73;;;;;;;;;;5047524;28;20231;-51
2023/04/09 10:59:41;;;;;;;23.70;19.63;;;;;;;;;;5049252;28;20234;-51
2023/04/09 11:02:08;;;;;;;26.80;21.07;;;;;;;;;;5041703;28;20229;-52
2023/04/09 11:04:37;;;;;;;25.87;19.73;;;;;;;;;;5039827;28;20302;-49
2023/04/09 11:07:06;;;;;;;22.93;19.73;;;;;;;;;;5040136;28;20239;-50
2023/04/09 11:09:34;;;;;;;23.80;18.80;;;;;;;;;;5041846;28;20600;-50
2023/04/09 11:12:02;;;;;;;24.67;18.27;;;;;;;;;;5040025;28;20255;-49
2023/04/09 11:14:29;;;;;;;23.77;18.60;;;;;;;;;;5049706;28;20312;-50
2023/04/09 11:16:56;;;;;;;22.00;17.70;;;;;;;;;;5043742;28;20285;-50
2023/04/09 11:19:22;;;;;;;24.53;19.23;;;;;;;;;;5044968;28;20239;-50
2023/04/09 11:21:50;;;;;;;27.23;20.90;;;;;;;;;;5047984;28;20236;-50
2023/04/09 11:24:18;;;;;;;25.17;18.60;;;;;;;;;;5042659;28;20228;-51
2023/04/09 11:26:49;;;;;;;26.63;20.23;;;;;;;;;;5046728;28;20588;-50
2023/04/09 11:29:16;;;;;;;23.20;18.57;;;;;;;;;;5052625;28;20251;-50
2023/04/09 11:31:44;;;;;;;23.70;18.03;;;;;;;;;;5051825;28;20365;-52
2023/04/09 11:34:12;;;;;;;22.40;18.20;;;;;;;;;;5048681;28;20655;-51
2023/04/09 11:36:39;;;;;;;20.60;16.17;;;;;;;;;;5048314;28;20259;-51
2023/04/09 11:39:05;;;;;;;23.83;17.93;;;;;;;;;;5041901;28;20308;-52
2023/04/09 11:41:34;;;;;;;20.27;17.13;;;;;;;;;;5043501;28;20608;-51
2023/04/09 11:44:02;;;;;;;23.43;17.50;;;;;;;;;;5048090;28;20593;-52
2023/04/09 11:46:29;;;;;;;22.23;18.30;;;;;;;;;;5051411;28;20243;-52
2023/04/09 11:48:56;;;;;;;23.17;16.27;;;;;;;;;;5047671;28;20289;-51
2023/04/09 11:51:23;;;;;;;17.70;15.53;;;;;;;;;;5048565;28;20289;-52
2023/04/09 11:53:50;;;;;;;19.37;16.77;;;;;;;;;;5043574;28;20785;-49
2023/04/09 11:56:16;;;;;;;20.80;16.87;;;;;;;;;;5047291;28;20236;-50
2023/04/09 11:58:47;;;;;;;22.90;16.87;;;;;;;;;;5046258;28;20236;-51
2023/04/09 12:01:13;;;;;;;23.47;18.13;;;;;;;;;;5053168;28;20231;-50
2023/04/09 12:03:40;;;;;;;22.17;16.60;;;;;;;;;;5050953;28;20228;-51
2023/04/09 12:06:08;;;;;;;21.90;17.00;;;;;;;;;;5050273;28;20231;-53
2023/04/09 12:08:35;;;;;;;23.47;18.00;;;;;;;;;;5041973;28;20236;-52
2023/04/09 12:11:09;;;;;;;24.23;17.13;;;;;;;;;;5045980;28;20261;-51
2023/04/09 12:13:35;;;;;;;22.50;15.97;;;;;;;;;;5048439;28;20226;-53
2023/04/09 12:16:03;;;;;;;25.03;17.57;;;;;;;;;;5048295;28;20240;-50
2023/04/09 12:18:30;;;;;;;19.40;15.93;;;;;;;;;;5039526;28;20808;-51
2023/04/09 12:20:56;;;;;;;21.52;17.23;;;;;;;;;;5047246;28;20256;-51
2023/04/09 12:23:23;;;;;;;21.98;17.73;;;;;;;;;;5045934;28;20646;-50
2023/04/09 12:25:50;;;;;;;19.87;16.60;;;;;;;;;;5046804;28;20219;-50
2023/04/09 12:28:17;;;;;;;19.13;16.13;;;;;;;;;;5047610;28;20247;-51
2023/04/09 12:30:44;;;;;;;20.23;16.67;;;;;;;;;;5034207;28;20315;-51
2023/04/09 12:33:12;;;;;;;18.80;16.08;;;;;;;;;;5045645;28;20784;-51
2023/04/09 12:35:39;;;;;;;18.85;15.32;;;;;;;;;;5044501;28;20227;-51
2023/04/09 12:38:05;;;;;;;18.63;14.93;;;;;;;;;;5048500;28;20265;-52
2023/04/09 12:40:32;;;;;;;21.60;17.05;;;;;;;;;;5046026;28;20613;-50
2023/04/09 12:42:59;;;;;;;19.75;15.32;;;;;;;;;;5048272;28;20668;-51
2023/04/09 12:45:26;;;;;;;19.40;15.55;;;;;;;;;;5042162;28;20235;-50
2023/04/09 12:47:53;;;;;;;22.48;17.48;;;;;;;;;;5043827;28;20243;-54
2023/04/09 12:50:21;;;;;;;20.23;16.08;;;;;;;;;;5044387;28;20228;-52
2023/04/09 12:52:47;;;;;;;21.35;16.00;;;;;;;;;;5048654;28;20228;-50
2023/04/09 12:55:14;;;;;;;18.25;15.32;;;;;;;;;;5040693;28;20300;-50
2023/04/09 12:57:42;;;;;;;17.83;15.60;;;;;;;;;;5045979;28;20677;-51
2023/04/09 13:00:09;;;;;;;18.25;15.48;;;;;;;;;;5044550;28;20235;-51
2023/04/09 13:02:36;;;;;;;21.23;15.07;;;;;;;;;;5046387;28;20234;-52
2023/04/09 13:05:03;;;;;;;16.98;12.73;;;;;;;;;;5053417;28;20782;-53
2023/04/09 13:07:31;;;;;;;17.23;14.45;;;;;;;;;;5043262;28;20223;-50
2023/04/09 13:09:58;;;;;;;18.38;14.02;;;;;;;;;;5044004;28;20313;-54
2023/04/09 13:12:25;;;;;;;15.70;13.75;;;;;;;;;;5045058;28;20235;-50
2023/04/09 13:14:52;;;;;;;19.25;15.02;;;;;;;;;;5037897;28;20228;-51
2023/04/09 13:17:19;;;;;;;17.60;14.75;;;;;;;;;;5046021;28;20310;-52
2023/04/09 13:19:46;;;;;;;17.38;14.95;;;;;;;;;;5045835;28;20238;-52
2023/04/09 13:22:12;;;;;;;19.73;15.45;;;;;;;;;;5046175;28;20237;-51
2023/04/09 13:24:41;;;;;;;17.20;14.80;;;;;;;;;;5052082;28;20257;-52
2023/04/09 13:27:09;;;;;;;18.00;15.02;;;;;;;;;;5039257;28;20650;-51
2023/04/09 13:29:35;;;;;;;21.40;15.73;;;;;;;;;;5041652;28;20238;-52
2023/04/09 13:32:05;;;;;;;18.52;14.98;;;;;;;;;;5036149;28;20727;-52
2023/04/09 13:34:32;;;;;;;17.92;14.10;;;;;;;;;;5045797;28;20224;-52
2023/04/09 13:36:59;;;;;;;16.30;14.43;;;;;;;;;;5040577;28;20772;-52
2023/04/09 13:39:26;;;;;;;19.20;15.82;;;;;;;;;;5039357;28;20232;-51
2023/04/09 13:41:55;;;;;;;19.42;14.95;;;;;;;;;;5044196;28;20243;-52
2023/04/09 13:44:22;;;;;;;16.80;14.20;;;;;;;;;;5044766;28;20318;-52
2023/04/09 13:46:49;;;;;;;18.95;14.10;;;;;;;;;;5054332;28;20227;-52
2023/04/09 13:49:16;;;;;;;17.23;13.98;;;;;;;;;;5044434;28;20239;-53
2023/04/09 13:51:43;;;;;;;16.73;13.82;;;;;;;;;;5033518;28;20234;-52
2023/04/09 13:54:10;;;;;;;19.63;14.63;;;;;;;;;;5038406;28;20282;-53
2023/04/09 13:56:36;;;;;;;15.88;13.98;;;;;;;;;;5041442;28;20240;-51
2023/04/09 13:59:05;;;;;;;18.25;15.45;;;;;;;;;;5044825;28;20235;-51
2023/04/09 14:01:31;;;;;;;18.85;14.68;;;;;;;;;;5057401;28;20224;-53
2023/04/09 14:03:58;;;;;;;15.85;13.10;;;;;;;;;;5045371;28;20246;-53
2023/04/09 14:06:25;;;;;;;16.23;13.38;;;;;;;;;;5040989;28;20243;-52
2023/04/09 14:08:52;;;;;;;17.10;14.15;;;;;;;;;;5043404;28;20791;-52
2023/04/09 14:11:19;;;;;;;15.48;11.80;;;;;;;;;;5046163;28;20232;-52
2023/04/09 14:13:47;;;;;;;16.17;13.32;;;;;;;;;;5047460;28;20277;-52
2023/04/09 14:16:15;;;;;;;14.45;11.43;;;;;;;;;;5052045;28;20943;-53